Thursday, September 20, 2018, 10:10 PM EDT
Back to Local

KACK, Nantucket Memorial Airport

Location: Nantucket, MA, United States Lat: 41.25
Local Time: 10:10 PM EDT ( 2:10 GMT) Lon: -70.067
Time Zone: US/Eastern Elev: 49 ft

Show me the last for .
Show Decoded

2018-09-20 21:53 METAR KACK 210153Z 06005KT 10SM CLR 14/12 A3029 RMK AO2 SLP257 T01440117 =
2018-09-20 20:53 METAR KACK 210053Z 06005KT 10SM CLR 14/12 A3028 RMK AO2 SLP253 T01440122 =
2018-09-20 19:53 METAR KACK 202353Z 06005KT 10SM OVC041 16/12 A3027 RMK AO2 SLP250 T01560122
                 10206 20156 53014 =
2018-09-20 18:53 METAR KACK 202253Z 05008KT 10SM OVC042 17/13 A3025 RMK AO2 SLP244 T01670128 =
2018-09-20 17:53 METAR KACK 202153Z 06010KT 10SM SCT016 OVC044 17/13 A3025 RMK AO2 SLP242
                 T01720133 =
2018-09-20 17:02 METAR KACK 202102Z 05009KT 10SM FEW015 BKN028 OVC038 18/14 A3023 RMK AO2
                 T01780139 =
2018-09-20 16:53 METAR KACK 202053Z 06009KT 10SM FEW017 SCT024 OVC038 18/14 A3023 RMK AO2 SLP236
                 T01830139 53006 =
2018-09-20 15:53 METAR KACK 201953Z 06009KT 10SM SCT015 SCT023 BKN055 19/14 A3023 RMK AO2 SLP235
                 T01890139 =
2018-09-20 15:10 METAR KACK 201910Z 05011KT 10SM SCT023 19/14 A3022 RMK AO2 T01890139 =
2018-09-20 14:53 METAR KACK 201853Z 05012G20KT 10SM SCT021 BKN026 19/14 A3021 RMK AO2 SLP230
                 T01940139 =
2018-09-20 13:53 METAR KACK 201753Z 05012KT 10SM FEW021 20/13 A3021 RMK AO2 SLP230 T02000133
                 10206 20172 50001 =
2018-09-20 12:53 METAR KACK 201653Z 04014KT 10SM SCT021 SCT050 20/13 A3022 RMK AO2 SLP233
                 T02000133 =
2018-09-20 11:53 METAR KACK 201553Z 06011KT 10SM FEW019 SCT025 19/14 A3021 RMK AO2 SLP231
                 T01940144 =
2018-09-20 10:53 METAR KACK 201453Z 06014KT 10SM FEW020 FEW025 20/14 A3021 RMK AO2 SLP229
                 T02000144 53024 =
2018-09-20 09:53 METAR KACK 201353Z 05012KT 10SM FEW019 19/14 A3018 RMK AO2 SLP221 T01940144 =
2018-09-20 08:53 METAR KACK 201253Z 05008KT 10SM FEW046 18/15 A3016 RMK AO2 SLP212 T01830150 =
2018-09-20 08:24 METAR KACK 201224Z 05009KT 10SM FEW010 SCT021 BKN049 18/16 A3015 RMK AO2
                 T01780156 =
2018-09-20 07:53 METAR KACK 201153Z 05010KT 10SM BKN008 BKN014 OVC019 17/16 A3014 RMK AO2 SLP205
                 60001 70001 T01720161 10172 20161 53024 =
2018-09-20 07:50 METAR KACK 201150Z 05010KT 10SM BKN008 OVC019 17/16 A3014 RMK AO2 CIG 007V012 =
2018-09-20 06:53 METAR KACK 201053Z 05009KT 10SM SCT010 BKN016 OVC050 17/16 A3011 RMK AO2 SLP195
                 T01670156 =
2018-09-20 06:16 METAR KACK 201016Z 03008KT 10SM FEW013 SCT019 BKN050 16/15 A3009 RMK AO2
                 T01610150 =
2018-09-20 06:00 METAR KACK 201000Z 04007KT 10SM FEW010 BKN016 OVC050 16/16 A3009 RMK AO2
                 T01610156 =
2018-09-20 05:53 METAR KACK 200953Z AUTO 04007KT 10SM FEW008 BKN014 OVC048 16/16 A3009 RMK AO2
                 RAE0859 SLP188 P0000 T01610156 =
2018-09-20 05:40 METAR KACK 200940Z AUTO 03009KT 10SM FEW007 BKN014 OVC046 16/16 A3008 RMK AO2
                 RAE0859 P0000 T01610156 =
2018-09-20 05:31 METAR KACK 200931Z AUTO 04007KT 10SM SCT007 BKN023 OVC045 16/16 A3008 RMK AO2
                 RAE0859 P0000 T01610156 =
2018-09-20 05:02 METAR KACK 200902Z AUTO 04009KT 10SM BKN006 BKN010 OVC019 17/16 A3007 RMK AO2
                 RAE0859 P0000 T01670161 =
2018-09-20 04:53 METAR KACK 200853Z AUTO 04008KT 5SM -RA BR SCT006 BKN011 OVC021 17/16 A3006 RMK
                 AO2 RAB31 SLP180 P0000 60001 T01670161 53004 =
2018-09-20 04:32 METAR KACK 200832Z AUTO 03009KT 2 1/2SM -RA BR FEW006 BKN012 OVC039 17/16 A3006
                 RMK AO2 RAB31 P0000 T01670161 =
2018-09-20 04:04 METAR KACK 200804Z AUTO 02009KT 10SM SCT006 BKN016 OVC038 16/16 A3006 RMK AO2
                 T01610156 =
2018-09-20 03:53 METAR KACK 200753Z AUTO 02010KT 9SM BKN007 BKN013 OVC025 17/16 A3005 RMK AO2
                 RAB12E52 SLP176 P0000 T01670161 =
2018-09-20 03:34 METAR KACK 200734Z AUTO 02011KT 4SM -RA BR BKN007 OVC019 17/16 A3005 RMK AO2
                 RAB12 P0000 T01670161 =
2018-09-20 03:13 METAR KACK 200713Z AUTO 03013KT 4SM -RA BR SCT007 BKN011 OVC019 17/16 A3005 RMK
                 AO2 RAB12 P0000 T01670156 =
2018-09-20 02:53 METAR KACK 200653Z AUTO 02016KT 10SM BKN008 OVC018 17/16 A3005 RMK AO2
                 RAE10B31E50 SLP177 P0001 T01670156 =
2018-09-20 01:53 METAR KACK 200553Z AUTO 01014KT 3SM -RA BR BKN009 OVC017 17/16 A3005 RMK AO2
                 RAB19E31B53 SLP176 P0000 60000 T01670156 10172 20161 53012 =
2018-09-20 01:16 METAR KACK 200516Z AUTO 02014KT 4SM BR BKN008 OVC018 17/16 A3004 RMK AO2
                 T01670156 =
2018-09-20 00:53 METAR KACK 200453Z AUTO 02014G21KT 10SM SCT011 BKN017 OVC029 17/15 A3003 RMK AO2
                 SLP169 T01670150 402110161 =
2018-09-19 23:53 METAR KACK 200353Z AUTO 02014G22KT 10SM FEW023 OVC029 17/14 A3003 RMK AO2 SLP168
                 T01670144 =
2018-09-19 22:53 METAR KACK 200253Z AUTO 03014KT 10SM FEW015 BKN025 17/14 A3002 RMK AO2 PK WND
                 02026/0217 SLP165 T01670139 51005 =

Support USWX by starting your Amazon purchase here.